Time;durP1;ratioP1;P1;durP2;ratioP2;P2;SDS_P1;SDS_P2;PMS_P1;PMS_P2;Temp;Humidity;BMP_temperature;BMP_pressure;BME280_temperature;BME280_humidity;BME280_pressure;Samples;Min_cycle;Max_cycle;Signal;HPM_P1;HPM_P2
2023/05/18 00:03:18;;;;;;;6.18;2.38;;;;;;;7.42;89.63;100599.59;12220933;19;20463;-84
2023/05/18 00:07:20;;;;;;;10.45;3.80;;;;;;;7.39;89.20;100597.28;12207996;19;20014;-84
2023/05/18 00:11:22;;;;;;;6.57;2.75;;;;;;;7.35;89.70;100593.25;12239730;19;20022;-82
2023/05/18 00:15:24;;;;;;;13.90;3.25;;;;;;;7.31;89.47;100590.91;12230698;19;20014;-83
2023/05/18 00:19:28;;;;;;;7.85;2.53;;;;;;;7.28;89.45;100590.50;12200711;19;20050;-83
2023/05/18 00:23:30;;;;;;;5.13;2.42;;;;;;;7.23;91.01;100596.63;12223476;19;20042;-85
2023/05/18 00:27:32;;;;;;;8.40;2.67;;;;;;;7.21;89.89;100589.66;12221850;19;20698;-84
2023/05/18 00:31:35;;;;;;;9.48;2.80;;;;;;;7.18;90.79;100584.59;12202458;19;20465;-83
2023/05/18 00:35:37;;;;;;;;;;;;;;;7.15;92.13;100591.34;12217997;19;20011;-84
2023/05/18 00:39:38;;;;;;;8.15;2.85;;;;;;;7.13;93.27;100589.84;12202047;19;19911;-81
2023/05/18 00:43:40;;;;;;;9.05;2.60;;;;;;;7.05;93.71;100583.53;12223694;19;20011;-82
2023/05/18 00:47:42;;;;;;;10.38;2.80;;;;;;;7.02;93.61;100580.34;12222807;19;20011;-83
2023/05/18 00:51:44;;;;;;;10.52;2.83;;;;;;;7.00;92.39;100587.94;12201548;19;20014;-83
2023/05/18 00:55:46;;;;;;;6.10;2.38;;;;;;;6.97;93.32;100578.22;12222594;19;20019;-85
2023/05/18 00:59:48;;;;;;;10.40;3.20;;;;;;;6.96;94.15;100582.03;12222509;19;20014;-84
2023/05/18 01:03:55;;;;;;;8.43;2.95;;;;;;;6.95;93.46;100574.00;12206031;19;20325;-84
2023/05/18 01:07:56;;;;;;;11.57;3.03;;;;;;;6.92;93.34;100578.00;12222893;19;20476;-85
2023/05/18 01:12:11;;;;;;;11.07;2.58;;;;;;;6.91;94.88;100576.31;12224358;19;20550;-85
2023/05/18 01:16:20;;;;;;;10.10;2.33;;;;;;;6.89;95.38;100575.69;12201949;19;20741;-85
2023/05/18 01:20:45;;;;;;;5.47;2.55;;;;;;;6.87;94.70;100576.94;12219790;19;20023;-84
2023/05/18 01:24:48;;;;;;;10.02;2.65;;;;;;;6.78;95.33;100577.16;12215143;19;20019;-81
2023/05/18 01:28:50;;;;;;;8.60;2.42;;;;;;;6.75;96.31;100576.69;12245635;19;20018;-85
2023/05/18 01:32:53;;;;;;;9.25;3.47;;;;;;;6.70;96.58;100587.44;12237009;19;20014;-84
2023/05/18 01:36:55;;;;;;;7.53;2.75;;;;;;;6.67;98.19;100587.84;12196554;19;20018;-82
2023/05/18 01:41:25;;;;;;;10.13;2.50;;;;;;;6.64;97.97;100586.38;12218874;19;20049;-84
2023/05/18 01:45:28;;;;;;;12.65;3.58;;;;;;;6.61;99.62;100579.41;12213795;19;20074;-84
2023/05/18 01:49:42;;;;;;;7.80;2.97;;;;;;;6.56;99.08;100572.84;12193880;19;20066;-85
2023/05/18 01:54:09;;;;;;;8.25;2.60;;;;;;;6.53;99.37;100574.09;12213778;19;20002;-84
2023/05/18 01:58:12;;;;;;;5.65;2.88;;;;;;;6.50;99.68;100571.75;12197524;19;20022;-84
2023/05/18 02:02:14;;;;;;;12.18;3.38;;;;;;;6.49;99.69;100570.09;12217557;19;20026;-84
2023/05/18 02:06:19;;;;;;;7.90;3.25;;;;;;;6.46;100.00;100569.66;12216045;19;20011;-85
2023/05/18 02:10:21;;;;;;;6.90;2.63;;;;;;;6.45;100.00;100565.22;12198520;19;20007;-84
2023/05/18 02:14:23;;;;;;;8.10;2.85;;;;;;;6.43;100.00;100567.34;12213410;19;20034;-85
2023/05/18 02:18:25;;;;;;;5.13;2.83;;;;;;;6.38;100.00;100563.28;12219531;19;20013;-85
2023/05/18 02:22:27;;;;;;;9.68;3.30;;;;;;;6.34;100.00;100567.50;12199497;19;20479;-84
2023/05/18 02:26:29;;;;;;;8.18;3.33;;;;;;;6.33;100.00;100568.53;12217413;19;20014;-85
2023/05/18 02:30:33;;;;;;;7.68;2.70;;;;;;;6.31;100.00;100567.91;12219133;19;20017;-84
2023/05/18 02:34:37;;;;;;;10.60;3.10;;;;;;;6.27;100.00;100572.06;12190019;19;20010;-85
2023/05/18 02:38:41;;;;;;;8.23;2.70;;;;;;;6.24;100.00;100571.66;12216254;19;20089;-84
2023/05/18 02:42:43;;;;;;;7.47;2.97;;;;;;;6.19;100.00;100575.00;12187112;19;20468;-82
2023/05/18 02:46:45;;;;;;;8.20;2.90;;;;;;;6.15;100.00;100565.50;12213563;19;20438;-84
2023/05/18 02:50:50;;;;;;;8.82;2.72;;;;;;;6.11;100.00;100569.69;12210561;19;20057;-83
2023/05/18 02:54:53;;;;;;;9.60;3.28;;;;;;;6.05;100.00;100562.28;12190006;19;20014;-84
2023/05/18 02:59:04;;;;;;;7.40;2.92;;;;;;;6.04;100.00;100563.31;12209795;19;20011;-83
2023/05/18 03:03:14;;;;;;;8.90;2.47;;;;;;;6.00;100.00;100564.78;12212076;19;20104;-84
2023/05/18 03:07:19;;;;;;;8.73;2.95;;;;;;;5.92;100.00;100563.88;12187155;19;20014;-83
2023/05/18 03:11:22;;;;;;;8.32;3.13;;;;;;;5.87;100.00;100566.34;12210905;19;20007;-82
2023/05/18 03:15:24;;;;;;;9.48;3.30;;;;;;;5.85;100.00;100575.81;12208511;19;20038;-83
2023/05/18 03:19:26;;;;;;;12.85;3.40;;;;;;;5.83;100.00;100570.56;12190404;19;20003;-84
2023/05/18 03:23:29;;;;;;;13.80;3.13;;;;;;;5.82;100.00;100581.69;12209842;19;20018;-84
2023/05/18 03:27:32;;;;;;;5.63;2.80;;;;;;;5.78;100.00;100578.50;12208853;19;20023;-81
2023/05/18 03:31:34;;;;;;;9.90;3.00;;;;;;;5.73;100.00;100578.25;12189715;19;20836;-84
2023/05/18 03:35:39;;;;;;;11.48;2.85;;;;;;;5.68;100.00;100583.47;12208708;19;20018;-84
2023/05/18 03:39:42;;;;;;;10.38;3.25;;;;;;;5.62;100.00;100584.25;12190160;19;20018;-85
2023/05/18 03:43:45;;;;;;;12.18;2.90;;;;;;;5.59;100.00;100584.66;12212447;19;20017;-85
2023/05/18 03:47:47;;;;;;;8.48;3.28;;;;;;;5.59;100.00;100593.72;12206032;19;20014;-83
2023/05/18 03:51:49;;;;;;;11.23;2.72;;;;;;;5.55;100.00;100594.31;12187111;19;20094;-84
2023/05/18 03:55:51;;;;;;;9.23;3.63;;;;;;;5.54;100.00;100596.19;12208856;19;20010;-84
2023/05/18 03:59:53;;;;;;;10.82;2.90;;;;;;;5.54;100.00;100595.38;12210285;19;20655;-83
2023/05/18 04:03:56;;;;;;;13.07;3.75;;;;;;;5.57;100.00;100592.22;12188020;19;20028;-83
2023/05/18 04:07:59;;;;;;;9.70;2.85;;;;;;;5.58;100.00;100594.75;12207744;19;20178;-84
2023/05/18 04:12:02;;;;;;;10.77;2.77;;;;;;;5.60;100.00;100602.78;12213082;19;20078;-84
2023/05/18 04:16:04;;;;;;;10.20;3.08;;;;;;;5.61;100.00;100597.09;12187576;19;20662;-84
2023/05/18 04:20:11;;;;;;;8.68;2.80;;;;;;;5.67;100.00;100607.22;12221814;19;20018;-84
2023/05/18 04:24:15;;;;;;;9.32;3.22;;;;;;;5.70;100.00;100606.00;12218544;19;20002;-83
2023/05/18 04:28:18;;;;;;;9.63;2.63;;;;;;;5.70;100.00;100603.25;12197492;19;20014;-83
2023/05/18 04:32:20;;;;;;;11.52;3.00;;;;;;;5.78;100.00;100613.22;12221187;19;20025;-82
2023/05/18 04:36:24;;;;;;;7.45;2.80;;;;;;;5.81;100.00;100619.13;12214134;19;20018;-83
2023/05/18 04:40:26;;;;;;;5.95;2.63;;;;;;;5.84;100.00;100623.34;12199944;19;20480;-85
2023/05/18 04:44:30;;;;;;;8.53;2.67;;;;;;;5.86;100.00;100629.47;12219122;19;20787;-84
2023/05/18 04:48:33;;;;;;;12.07;3.78;;;;;;;5.91;100.00;100621.50;12216807;19;20011;-85
2023/05/18 04:52:40;;;;;;;12.32;3.45;;;;;;;5.97;100.00;100620.75;12196089;19;20002;-84
2023/05/18 04:56:46;;;;;;;9.38;2.95;;;;;;;6.01;100.00;100622.03;12220816;19;20018;-85
2023/05/18 05:00:47;;;;;;;7.75;2.88;;;;;;;6.05;100.00;100626.06;12198538;19;20042;-82
2023/05/18 05:04:49;;;;;;;9.32;3.30;;;;;;;6.08;100.00;100622.94;12222043;19;20011;-86
2023/05/18 05:08:51;;;;;;;8.48;2.45;;;;;;;6.12;100.00;100631.56;12216091;19;20464;-85
2023/05/18 05:12:53;;;;;;;8.15;2.67;;;;;;;6.16;100.00;100630.13;12194249;19;20664;-85
2023/05/18 05:16:55;;;;;;;6.30;2.80;;;;;;;6.22;100.00;100628.50;12215629;19;20011;-84
2023/05/18 05:20:58;;;;;;;7.68;2.90;;;;;;;6.26;100.00;100627.88;12217851;19;20018;-83
2023/05/18 05:25:00;;;;;;;6.80;2.78;;;;;;;6.34;100.00;100630.47;12194324;19;20014;-85
2023/05/18 05:29:04;;;;;;;12.70;3.75;;;;;;;6.45;100.00;100641.88;12216466;19;20023;-85
2023/05/18 05:33:06;;;;;;;9.35;3.42;;;;;;;6.52;100.00;100629.06;12215676;19;20030;-83
2023/05/18 05:37:10;;;;;;;8.32;3.95;;;;;;;6.59;100.00;100629.94;12194313;19;20353;-82
2023/05/18 05:41:11;;;;;;;5.65;2.65;;;;;;;6.68;100.00;100636.09;12215331;19;20013;-83
2023/05/18 05:45:14;;;;;;;7.97;2.90;;;;;;;6.72;100.00;100637.34;12214762;19;20372;-83
2023/05/18 05:49:22;;;;;;;11.40;5.10;;;;;;;6.80;100.00;100643.50;12190000;19;20003;-84
2023/05/18 05:53:25;;;;;;;10.68;3.42;;;;;;;6.89;100.00;100640.59;12216430;19;20015;-84
2023/05/18 05:57:27;;;;;;;5.68;3.13;;;;;;;7.03;100.00;100647.81;12220589;19;20011;-83
2023/05/18 06:01:29;;;;;;;9.68;2.90;;;;;;;7.18;100.00;100655.88;12210806;19;20113;-83
2023/05/18 06:05:33;;;;;;;9.95;2.90;;;;;;;7.34;100.00;100655.47;12223305;19;21030;-83
2023/05/18 06:09:36;;;;;;;7.60;2.85;;;;;;;7.53;100.00;100651.09;12220026;19;20011;-86
2023/05/18 06:13:41;;;;;;;9.07;2.75;;;;;;;7.67;100.00;100650.00;12218320;19;20010;-85
2023/05/18 06:17:44;;;;;;;6.43;2.60;;;;;;;7.84;100.00;100644.13;12217402;19;20014;-84
2023/05/18 06:21:49;;;;;;;9.00;2.90;;;;;;;8.00;99.20;100649.16;12196585;19;20007;-84
2023/05/18 06:25:52;;;;;;;8.50;2.67;;;;;;;8.17;97.85;100644.09;12217014;19;20078;-85
2023/05/18 06:30:09;;;;;;;7.75;3.40;;;;;;;8.39;96.56;100655.72;12216733;19;20026;-85
2023/05/18 06:34:31;;;;;;;6.32;2.17;;;;;;;8.62;94.78;100658.78;12194767;19;20018;-85
2023/05/18 06:38:34;;;;;;;8.45;3.10;;;;;;;8.86;91.51;100656.38;12217900;19;20006;-83
2023/05/18 06:42:36;;;;;;;8.73;2.78;;;;;;;9.06;89.73;100653.53;12203864;19;20011;-83
2023/05/18 06:46:58;;;;;;;12.70;2.55;;;;;;;9.25;86.23;100662.72;12213016;19;20021;-83
2023/05/18 06:51:02;;;;;;;7.03;3.10;;;;;;;9.51;86.04;100662.56;12213836;19;20014;-83
2023/05/18 06:55:06;;;;;;;9.85;2.22;;;;;;;9.74;84.22;100666.66;12192631;19;20078;-83
2023/05/18 06:59:08;;;;;;;9.25;2.83;;;;;;;10.01;83.16;100672.78;12212593;19;20010;-84
2023/05/18 07:03:12;;;;;;;7.93;2.60;;;;;;;10.22;79.52;100677.03;12212868;19;20007;-83
2023/05/18 07:07:15;;;;;;;8.35;2.30;;;;;;;10.39;79.15;100672.66;12189307;19;20637;-83
2023/05/18 07:11:17;;;;;;;6.15;2.63;;;;;;;10.57;77.80;100673.75;12205825;19;20010;-82
2023/05/18 07:15:19;;;;;;;9.25;2.83;;;;;;;10.77;76.86;100671.63;12202304;19;20015;-83
2023/05/18 07:19:21;;;;;;;8.45;2.22;;;;;;;10.93;76.42;100667.38;12191233;19;20018;-83
2023/05/18 07:23:23;;;;;;;7.33;2.40;;;;;;;11.15;74.03;100668.59;12209645;19;20010;-82
2023/05/18 07:27:26;;;;;;;7.30;2.43;;;;;;;11.43;73.85;100660.78;12212540;19;20015;-82
2023/05/18 07:31:30;;;;;;;5.85;2.60;;;;;;;11.58;71.78;100656.50;12189267;19;20246;-83
2023/05/18 07:35:32;;;;;;;8.75;2.38;;;;;;;11.69;71.98;100651.22;12208457;19;20104;-83
2023/05/18 07:39:34;;;;;;;12.60;2.27;;;;;;;11.81;71.01;100661.25;12210354;19;20018;-83
2023/05/18 07:43:36;;;;;;;9.38;2.53;;;;;;;12.05;70.78;100650.25;12187740;19;20022;-82
2023/05/18 07:47:39;;;;;;;7.20;2.22;;;;;;;12.39;69.78;100644.97;12205682;19;20055;-83
2023/05/18 07:51:42;;;;;;;9.05;2.53;;;;;;;12.57;68.61;100653.09;12191826;19;20432;-83
2023/05/18 07:55:45;;;;;;;;;;;;;;;12.72;65.16;100661.75;12220554;19;20676;-83
2023/05/18 07:59:47;;;;;;;6.30;2.33;;;;;;;12.85;65.39;100652.34;12220152;19;19918;-83
2023/05/18 08:03:49;;;;;;;14.30;2.42;;;;;;;12.98;66.39;100643.75;12204810;19;20078;-83
2023/05/18 08:07:51;;;;;;;7.43;2.20;;;;;;;13.32;66.27;100654.13;12231539;19;20011;-82
2023/05/18 08:11:53;;;;;;;6.93;2.27;;;;;;;13.62;64.94;100648.31;12233529;19;20407;-81
2023/05/18 08:15:55;;;;;;;9.57;2.28;;;;;;;13.74;62.56;100656.56;12201120;19;20043;-83
2023/05/18 08:20:12;;;;;;;8.60;2.13;;;;;;;13.85;63.38;100653.72;12214833;19;20062;-84
2023/05/18 08:24:14;;;;;;;7.43;2.10;;;;;;;14.05;60.64;100647.69;12219190;19;20010;-85
2023/05/18 08:28:16;;;;;;;9.27;2.10;;;;;;;14.21;58.43;100645.13;12200837;19;20081;-84
2023/05/18 08:32:18;;;;;;;10.33;4.37;;;;;;;14.40;59.67;100641.00;12223892;19;20070;-84
2023/05/18 08:36:21;;;;;;;10.23;2.50;;;;;;;14.65;59.11;100650.81;12201589;19;20035;-83
2023/05/18 08:40:41;;;;;;;4.85;1.85;;;;;;;14.84;55.60;100638.28;12202297;19;20090;-83
2023/05/18 08:45:06;;;;;;;12.07;2.53;;;;;;;14.89;55.17;100620.88;12222968;19;20007;-82
2023/05/18 08:49:09;;;;;;;9.43;2.42;;;;;;;14.84;55.05;100629.97;12204730;19;20021;-83
2023/05/18 08:53:11;;;;;;;9.20;2.17;;;;;;;14.96;54.96;100614.03;12228595;19;20006;-83
2023/05/18 08:57:16;;;;;;;9.18;2.75;;;;;;;15.13;53.99;100616.72;12221243;19;20020;-85
2023/05/18 09:01:26;;;;;;;8.45;2.20;;;;;;;15.32;52.42;100617.22;12211486;19;20018;-83
2023/05/18 09:05:30;;;;;;;9.38;2.53;;;;;;;15.57;51.11;100604.69;12225174;19;20013;-83
2023/05/18 09:09:34;;;;;;;9.30;2.08;;;;;;;15.77;51.51;100602.13;12223995;19;20022;-84
2023/05/18 09:13:37;;;;;;;8.93;3.37;;;;;;;16.00;51.01;100611.16;12200690;19;20090;-86
2023/05/18 09:17:39;;;;;;;5.13;2.15;;;;;;;16.15;49.20;100600.16;12231115;19;20270;-84
2023/05/18 09:21:41;;;;;;;;;;;;;;;16.21;50.13;100606.59;12203725;19;20007;-84
2023/05/18 09:25:45;;;;;;;13.35;2.40;;;;;;;16.49;49.25;100597.88;12219682;19;19911;-82
2023/05/18 09:29:53;;;;;;;7.32;2.40;;;;;;;16.52;47.34;100593.72;12216299;19;20475;-81
2023/05/18 09:33:57;;;;;;;7.60;2.13;;;;;;;16.62;47.59;100586.25;12200938;19;21369;-84
2023/05/18 09:38:05;;;;;;;8.63;1.85;;;;;;;17.10;44.85;100586.16;12218365;19;20010;-83
2023/05/18 09:42:07;;;;;;;11.05;2.53;;;;;;;17.57;43.07;100584.31;12228686;19;20017;-84
2023/05/18 09:46:11;;;;;;;8.77;2.17;;;;;;;18.10;42.02;100582.09;12191805;19;20109;-82
2023/05/18 09:50:19;;;;;;;10.00;2.10;;;;;;;18.25;41.87;100586.81;12209657;19;20742;-80
2023/05/18 09:54:23;;;;;;;6.95;1.80;;;;;;;18.14;42.46;100584.00;12213083;19;20773;-81
2023/05/18 09:58:31;;;;;;;9.87;2.47;;;;;;;18.38;41.94;100575.91;12198829;19;20014;-82
2023/05/18 10:02:37;;;;;;;6.00;2.05;;;;;;;18.97;41.73;100570.66;12211403;19;20030;-81
2023/05/18 10:06:48;;;;;;;6.13;1.75;;;;;;;19.39;39.42;100563.69;12192764;19;20010;-83
2023/05/18 10:10:51;;;;;;;11.18;2.50;;;;;;;19.61;39.92;100566.06;12217612;19;20011;-84
2023/05/18 10:14:53;;;;;;;9.48;2.35;;;;;;;19.47;38.42;100549.09;12213880;19;20023;-81
2023/05/18 10:18:56;;;;;;;6.68;1.60;;;;;;;19.34;38.88;100557.03;12193777;19;20454;-81
2023/05/18 10:23:04;;;;;;;7.47;2.10;;;;;;;19.37;37.45;100561.19;12215146;19;20011;-83
2023/05/18 10:27:08;;;;;;;7.32;2.08;;;;;;;19.69;39.06;100557.06;12213364;19;20287;-82
2023/05/18 10:31:11;;;;;;;8.32;2.20;;;;;;;19.29;38.73;100556.22;12194455;19;20011;-82
2023/05/18 10:35:17;;;;;;;6.50;1.92;;;;;;;19.17;38.69;100552.94;12207676;19;20372;-82
2023/05/18 10:39:19;;;;;;;5.18;1.77;;;;;;;19.45;37.40;100545.75;12209870;19;20019;-82
2023/05/18 10:43:41;;;;;;;8.13;2.70;;;;;;;19.95;36.90;100536.13;12187672;19;20570;-82
2023/05/18 10:47:53;;;;;;;8.05;2.60;;;;;;;20.22;35.12;100538.34;12214508;19;20014;-81
2023/05/18 10:51:57;;;;;;;6.80;2.40;;;;;;;20.12;35.95;100535.69;12205140;19;20039;-84
2023/05/18 10:56:00;;;;;;;5.75;2.00;;;;;;;20.24;35.33;100535.28;12226003;19;20007;-82
2023/05/18 11:00:07;;;;;;;10.95;2.90;;;;;;;20.45;35.24;100535.88;12232638;19;20010;-82
2023/05/18 11:04:09;;;;;;;6.60;2.25;;;;;;;20.66;35.47;100539.28;12218524;19;20103;-82
2023/05/18 11:08:25;;;;;;;9.35;2.30;;;;;;;20.96;34.29;100528.78;12237915;19;20006;-81
2023/05/18 11:12:31;;;;;;;9.10;2.63;;;;;;;20.88;33.14;100505.94;12238680;19;20069;-82
2023/05/18 11:16:35;;;;;;;5.03;1.80;;;;;;;20.85;34.66;100514.94;12211040;19;20499;-83
2023/05/18 11:20:47;;;;;;;7.00;2.00;;;;;;;20.90;34.70;100503.66;12238175;19;20023;-82
2023/05/18 11:25:36;;;;;;;8.40;2.70;;;;;;;21.11;33.38;100506.16;12218836;19;20543;-81
2023/05/18 11:29:53;;;;;;;6.57;2.38;;;;;;;21.17;34.32;100502.13;12265318;19;20022;-80
2023/05/18 11:34:40;;;;;;;4.35;1.80;;;;;;;21.26;32.91;100505.09;12233410;19;20007;-81
2023/05/18 11:38:54;;;;;;;7.72;2.25;;;;;;;21.29;34.23;100513.72;12261890;19;20402;-83
2023/05/18 11:42:57;;;;;;;7.82;2.05;;;;;;;21.47;33.24;100517.66;12240290;19;20131;-82
2023/05/18 11:47:04;;;;;;;8.10;1.98;;;;;;;21.85;33.46;100500.75;12269745;19;20011;-80
2023/05/18 11:51:10;;;;;;;5.85;1.90;;;;;;;22.40;32.30;100502.78;12250421;19;20007;-81
2023/05/18 11:55:15;;;;;;;8.55;1.90;;;;;;;22.59;31.87;100492.28;12243577;19;20013;-81
2023/05/18 11:59:28;;;;;;;10.27;2.88;;;;;;;22.94;30.04;100492.63;12262458;19;20006;-81
2023/05/18 12:03:30;;;;;;;5.13;1.90;;;;;;;22.70;30.49;100490.91;12261071;19;20010;-80
2023/05/18 12:07:38;;;;;;;8.43;2.00;;;;;;;22.67;31.10;100483.13;12235017;19;20010;-79
2023/05/18 12:11:41;;;;;;;5.05;2.10;;;;;;;22.60;32.01;100485.50;12248501;19;20013;-79
2023/05/18 12:15:44;;;;;;;8.57;2.10;;;;;;;23.48;30.50;100471.09;12218527;19;20017;-82
2023/05/18 12:19:47;;;;;;;7.05;2.22;;;;;;;24.54;28.76;100477.81;12245135;19;20023;-81
2023/05/18 12:23:59;;;;;;;7.63;2.15;;;;;;;25.53;27.90;100482.03;12244839;19;20013;-81
2023/05/18 12:28:03;;;;;;;7.18;2.75;;;;;;;26.20;27.50;100475.69;12249894;19;20002;-78
2023/05/18 12:32:10;;;;;;;8.23;2.60;;;;;;;26.95;26.99;100469.47;12248772;19;20002;-81
2023/05/18 12:36:13;;;;;;;10.25;3.53;;;;;;;27.87;24.73;100465.66;12240480;19;20451;-83
2023/05/18 12:40:18;;;;;;;6.05;1.90;;;;;;;28.83;24.58;100453.88;12206100;19;20006;-80
2023/05/18 12:44:20;;;;;;;6.35;2.08;;;;;;;29.06;22.98;100457.88;12221836;19;20115;-81
2023/05/18 12:48:25;;;;;;;6.80;3.28;;;;;;;29.89;23.05;100465.91;12218292;19;20078;-83
2023/05/18 12:52:27;;;;;;;6.00;2.28;;;;;;;30.34;22.55;100456.97;12195773;19;20017;-81
2023/05/18 12:56:50;;;;;;;;;;;;;;;29.81;22.21;100453.53;12219584;19;19998;-80
2023/05/18 13:00:52;;;;;;;5.07;2.38;;;;;;;30.27;21.08;100451.09;12209637;19;19918;-80
2023/05/18 13:05:06;;;;;;;6.03;2.33;;;;;;;29.96;21.66;100437.69;12232160;19;20026;-80
2023/05/18 13:09:12;;;;;;;6.78;2.33;;;;;;;29.87;22.65;100439.91;12232372;19;20006;-81
2023/05/18 13:13:15;;;;;;;5.90;2.38;;;;;;;29.46;23.58;100437.13;12204221;19;20029;-81
2023/05/18 13:17:21;;;;;;;5.57;2.10;;;;;;;29.19;23.02;100437.97;12228460;19;20026;-81
2023/05/18 13:21:34;;;;;;;4.80;2.63;;;;;;;27.39;24.72;100436.00;12226550;19;20038;-81
2023/05/18 13:25:37;;;;;;;6.88;2.58;;;;;;;26.90;24.56;100425.25;12213128;19;20008;-81
2023/05/18 13:29:39;;;;;;;7.13;2.50;;;;;;;27.54;23.80;100424.00;12227642;19;20014;-82
2023/05/18 13:33:47;;;;;;;11.73;3.10;;;;;;;28.83;23.06;100414.19;12214444;19;20018;-81
2023/05/18 13:37:50;;;;;;;6.93;2.17;;;;;;;29.84;21.93;100400.84;12221565;19;20010;-83
2023/05/18 13:41:53;;;;;;;8.32;2.47;;;;;;;29.80;21.63;100417.78;12230328;19;20010;-80
2023/05/18 13:46:00;;;;;;;6.78;2.10;;;;;;;29.22;22.72;100414.53;12216553;19;20011;-81
2023/05/18 13:50:04;;;;;;;5.80;2.35;;;;;;;30.38;20.95;100403.84;12229668;19;20013;-81
2023/05/18 13:54:08;;;;;;;4.28;2.20;;;;;;;31.16;20.53;100395.44;12222547;19;20003;-81
2023/05/18 13:58:09;;;;;;;6.07;2.08;;;;;;;32.07;19.72;100404.50;12194129;19;20010;-81
2023/05/18 14:02:11;;;;;;;10.73;4.32;;;;;;;32.61;19.88;100403.34;12220111;19;20018;-81
2023/05/18 14:06:13;;;;;;;7.95;2.58;;;;;;;32.85;18.78;100374.31;12220606;19;20256;-82
2023/05/18 14:10:15;;;;;;;4.80;2.10;;;;;;;33.20;18.65;100375.16;12205900;19;20014;-83
2023/05/18 14:14:18;;;;;;;6.00;2.17;;;;;;;33.63;18.38;100379.34;12233017;19;20148;-82
2023/05/18 14:18:27;;;;;;;7.60;2.35;;;;;;;34.22;17.75;100377.44;12229969;19;20019;-83
2023/05/18 14:22:30;;;;;;;8.07;2.38;;;;;;;33.94;17.73;100369.44;12195702;19;20007;-82
2023/05/18 14:26:33;;;;;;;6.78;2.35;;;;;;;33.76;18.11;100360.72;12219642;19;20002;-82
2023/05/18 14:30:35;;;;;;;6.50;2.35;;;;;;;33.81;18.23;100365.22;12221709;19;20386;-82
2023/05/18 14:34:37;;;;;;;4.22;1.85;;;;;;;34.01;17.27;100371.53;12204236;19;20011;-78
2023/05/18 14:38:45;;;;;;;8.38;2.25;;;;;;;34.78;17.75;100365.97;12225584;19;20010;-80
2023/05/18 14:42:46;;;;;;;4.95;2.30;;;;;;;33.93;17.96;100353.47;12210738;19;20022;-81
2023/05/18 14:46:51;;;;;;;7.57;2.20;;;;;;;31.99;19.13;100358.78;12233425;19;20448;-81
2023/05/18 14:50:54;;;;;;;7.40;3.30;;;;;;;29.11;20.84;100368.81;12227770;19;20023;-83
2023/05/18 14:54:56;;;;;;;7.07;2.05;;;;;;;26.93;22.35;100353.88;12195005;19;20014;-83
2023/05/18 14:58:58;;;;;;;;;;;;;;;24.88;24.78;100356.97;12225147;19;20376;-82
2023/05/18 15:03:00;;;;;;;5.60;1.77;;;;;;;24.44;24.67;100347.69;12224367;19;19928;-80
2023/05/18 15:07:04;;;;;;;6.38;2.05;;;;;;;24.62;24.78;100354.97;12207373;19;20394;-81
2023/05/18 15:11:06;;;;;;;12.25;2.33;;;;;;;24.34;25.07;100360.09;12225005;19;20539;-81
2023/05/18 15:15:09;;;;;;;6.82;3.58;;;;;;;24.39;25.25;100347.81;12211364;19;20055;-81
2023/05/18 15:19:13;;;;;;;10.90;6.13;;;;;;;24.03;25.14;100341.28;12205235;19;20011;-82
2023/05/18 15:23:37;;;;;;;49.75;40.00;;;;;;;23.00;26.52;100336.81;12220269;19;20010;-82
2023/05/18 15:27:41;;;;;;;10.73;5.38;;;;;;;22.23;27.34;100346.22;12211702;19;20067;-83
2023/05/18 15:31:45;;;;;;;8.60;2.88;;;;;;;21.59;28.46;100324.53;12214136;19;20006;-82
2023/05/18 15:35:48;;;;;;;8.35;2.00;;;;;;;21.84;28.97;100341.97;12209493;19;20026;-82
2023/05/18 15:39:49;;;;;;;;;;;;;;;21.49;28.62;100337.91;12194736;19;20003;-82
2023/05/18 15:43:53;;;;;;;11.80;3.10;;;;;;;21.28;29.03;100323.44;12224487;19;19927;-81
2023/05/18 15:47:55;;;;;;;8.07;1.90;;;;;;;21.01;29.36;100318.59;12219797;19;20107;-81
2023/05/18 15:51:57;;;;;;;5.38;1.92;;;;;;;20.94;29.16;100325.44;12194540;19;20004;-81
2023/05/18 15:56:36;;;;;;;9.15;1.90;;;;;;;20.82;29.99;100327.88;12208926;19;20027;-83
2023/05/18 16:00:41;;;;;;;7.97;2.08;;;;;;;20.79;30.32;100325.69;12195739;19;20074;-82
2023/05/18 16:04:43;;;;;;;10.20;2.30;;;;;;;20.71;30.61;100327.22;12224340;19;20026;-80
2023/05/18 16:08:47;;;;;;;5.23;1.80;;;;;;;20.40;30.50;100315.63;12231196;19;20003;-81
2023/05/18 16:13:10;;;;;;;5.95;2.08;;;;;;;19.83;31.29;100317.53;12221267;19;20014;-81
2023/05/18 16:17:12;;;;;;;5.43;2.22;;;;;;;19.50;31.71;100314.56;12244528;19;20010;-82
2023/05/18 16:21:15;;;;;;;8.27;2.38;;;;;;;19.51;31.57;100309.81;12250567;19;20727;-82
2023/05/18 16:25:17;;;;;;;;;;;;;;;19.41;32.28;100313.56;12225538;19;20013;-82
2023/05/18 16:29:19;;;;;;;8.35;2.35;;;;;;;19.75;31.83;100312.63;12241793;19;19919;-82
2023/05/18 16:33:21;;;;;;;6.47;1.67;;;;;;;20.17;31.87;100322.16;12240713;19;20040;-81
2023/05/18 16:37:29;;;;;;;5.75;1.85;;;;;;;20.38;31.82;100322.69;12210278;19;20014;-82
2023/05/18 16:41:35;;;;;;;7.63;1.75;;;;;;;20.26;32.29;100323.97;12249117;19;20003;-83
2023/05/18 16:45:46;;;;;;;8.77;2.25;;;;;;;19.97;32.95;100331.66;12251641;19;20093;-83
2023/05/18 16:49:52;;;;;;;8.55;2.45;;;;;;;19.49;33.95;100329.69;12227932;19;20018;-82
2023/05/18 16:53:56;;;;;;;7.20;2.25;;;;;;;19.21;34.97;100338.91;12232340;19;20082;-82
2023/05/18 16:58:01;;;;;;;8.70;1.92;;;;;;;19.18;34.27;100331.13;12224829;19;20044;-83
2023/05/18 17:02:05;;;;;;;9.65;2.28;;;;;;;19.36;33.82;100327.56;12251169;19;20021;-82
2023/05/18 17:06:08;;;;;;;7.40;2.17;;;;;;;19.65;34.41;100335.94;12246160;19;20048;-81
2023/05/18 17:10:12;;;;;;;5.93;2.20;;;;;;;19.47;35.15;100336.69;12174407;19;20026;-82
2023/05/18 17:14:56;;;;;;;8.23;2.00;;;;;;;19.22;36.00;100341.41;12276284;19;20038;-81
2023/05/18 17:19:00;;;;;;;9.20;2.20;;;;;;;19.07;36.18;100334.03;12226582;19;20017;-83
2023/05/18 17:23:02;;;;;;;8.00;2.73;;;;;;;18.95;36.80;100335.50;12253450;19;20015;-81
2023/05/18 17:27:04;;;;;;;8.43;2.30;;;;;;;18.80;36.20;100339.28;12251674;19;20009;-81
2023/05/18 17:31:07;;;;;;;6.68;2.10;;;;;;;18.71;37.22;100341.00;12235393;19;20431;-82
2023/05/18 17:35:09;;;;;;;6.50;1.93;;;;;;;18.69;38.08;100332.94;12255608;19;20046;-82
2023/05/18 17:39:15;;;;;;;5.90;2.10;;;;;;;18.52;38.20;100333.31;12246980;19;20107;-81
2023/05/18 17:43:18;;;;;;;11.32;4.28;;;;;;;18.09;40.46;100335.84;12200569;19;20014;-80
2023/05/18 17:47:22;;;;;;;7.90;2.27;;;;;;;17.88;40.18;100334.28;12224545;19;20010;-81
2023/05/18 17:51:27;;;;;;;4.85;2.53;;;;;;;17.83;40.91;100337.06;12215353;19;20074;-81
2023/05/18 17:55:30;;;;;;;6.57;1.95;;;;;;;17.85;41.05;100338.47;12188117;19;20055;-81
2023/05/18 17:59:33;;;;;;;5.35;2.10;;;;;;;17.98;40.48;100335.03;12213819;19;20471;-79
2023/05/18 18:03:38;;;;;;;6.47;2.20;;;;;;;17.99;41.39;100338.66;12223085;19;20051;-80
2023/05/18 18:07:40;;;;;;;6.53;2.07;;;;;;;17.97;41.21;100338.13;12228150;19;20011;-80
2023/05/18 18:11:42;;;;;;;6.53;2.15;;;;;;;18.16;40.43;100347.50;12224783;19;20032;-79
2023/05/18 18:15:44;;;;;;;3.97;2.37;;;;;;;18.00;40.93;100348.72;12204121;19;20384;-80
2023/05/18 18:19:48;;;;;;;7.28;1.70;;;;;;;17.81;41.68;100345.72;12230477;19;20018;-79
2023/05/18 18:23:50;;;;;;;6.72;2.00;;;;;;;17.74;41.50;100348.78;12225539;19;20057;-79
2023/05/18 18:27:52;;;;;;;5.87;2.13;;;;;;;17.67;40.92;100347.44;12202714;19;20022;-80
2023/05/18 18:31:56;;;;;;;5.82;1.80;;;;;;;17.34;42.13;100358.09;12217801;19;20236;-79
2023/05/18 18:35:59;;;;;;;6.63;2.10;;;;;;;17.02;43.15;100359.25;12212107;19;20015;-78
2023/05/18 18:40:01;;;;;;;5.45;1.70;;;;;;;16.78;43.36;100364.53;12190812;19;20077;-78
2023/05/18 18:44:04;;;;;;;5.28;2.22;;;;;;;16.51;44.55;100369.47;12209086;19;20027;-79
2023/05/18 18:48:07;;;;;;;6.45;2.25;;;;;;;16.25;44.84;100369.44;12211038;19;20090;-79
2023/05/18 18:52:10;;;;;;;9.10;2.33;;;;;;;16.00;45.25;100372.13;12189531;19;20800;-78